<?xml version="1.0" encoding="UTF-8" standalone="no" ?>
<gpx xmlns="http://www.topografix.com/GPX/1/1" xmlns:xsi="http://www.w3.org/2001/XMLSchema-instance" xsi:schemaLocation="http://www.topografix.com/GPX/1/1 http://www.topografix.com/GPX/1/1/gpx.xsd" version="1.1" creator="VisuGPX - https://www.visugpx.com">
  <metadata>
    <name>Le Lac d'Issarles 1</name>
  </metadata>
  <trk>
    <name><![CDATA[10223795-Le Lac d'Issarles]]></name>
    <trkseg>
      <trkpt lat="44.81692" lon="4.06335">
        <ele>1002</ele>
        <time>2020-09-16T08:28:45Z</time>
      </trkpt>
      <trkpt lat="44.81691" lon="4.06337">
        <ele>1002</ele>
        <time>2020-09-16T08:28:47Z</time>
      </trkpt>
      <trkpt lat="44.81631" lon="4.06318">
        <ele>1005</ele>
        <time>2020-09-16T08:30:09Z</time>
      </trkpt>
      <trkpt lat="44.81573" lon="4.06308">
        <ele>1008</ele>
        <time>2020-09-16T08:31:27Z</time>
      </trkpt>
      <trkpt lat="44.81533" lon="4.06309">
        <ele>1011</ele>
        <time>2020-09-16T08:32:21Z</time>
      </trkpt>
      <trkpt lat="44.81522" lon="4.06311">
        <ele>1012</ele>
        <time>2020-09-16T08:32:36Z</time>
      </trkpt>
      <trkpt lat="44.81511" lon="4.06317">
        <ele>1013</ele>
        <time>2020-09-16T08:32:51Z</time>
      </trkpt>
      <trkpt lat="44.81483" lon="4.06338">
        <ele>1015</ele>
        <time>2020-09-16T08:33:34Z</time>
      </trkpt>
      <trkpt lat="44.81468" lon="4.06354">
        <ele>1015</ele>
        <time>2020-09-16T08:33:59Z</time>
      </trkpt>
      <trkpt lat="44.81396" lon="4.06439">
        <ele>1022</ele>
        <time>2020-09-16T08:36:04Z</time>
      </trkpt>
      <trkpt lat="44.81376" lon="4.06458">
        <ele>1021</ele>
        <time>2020-09-16T08:36:36Z</time>
      </trkpt>
      <trkpt lat="44.81348" lon="4.0649">
        <ele>1023</ele>
        <time>2020-09-16T08:37:24Z</time>
      </trkpt>
      <trkpt lat="44.81311" lon="4.06536">
        <ele>1026</ele>
        <time>2020-09-16T08:38:30Z</time>
      </trkpt>
      <trkpt lat="44.81275" lon="4.06571">
        <ele>1033</ele>
        <time>2020-09-16T08:39:29Z</time>
      </trkpt>
      <trkpt lat="44.81255" lon="4.06558">
        <ele>1036</ele>
        <time>2020-09-16T08:39:58Z</time>
      </trkpt>
      <trkpt lat="44.81238" lon="4.06562">
        <ele>1040</ele>
        <time>2020-09-16T08:40:21Z</time>
      </trkpt>
      <trkpt lat="44.81221" lon="4.06561">
        <ele>1044</ele>
        <time>2020-09-16T08:40:44Z</time>
      </trkpt>
      <trkpt lat="44.81207" lon="4.06551">
        <ele>1047</ele>
        <time>2020-09-16T08:41:05Z</time>
      </trkpt>
      <trkpt lat="44.81175" lon="4.06517">
        <ele>1052</ele>
        <time>2020-09-16T08:41:58Z</time>
      </trkpt>
      <trkpt lat="44.81139" lon="4.06489">
        <ele>1058</ele>
        <time>2020-09-16T08:42:53Z</time>
      </trkpt>
      <trkpt lat="44.8112" lon="4.06479">
        <ele>1060</ele>
        <time>2020-09-16T08:43:20Z</time>
      </trkpt>
      <trkpt lat="44.81091" lon="4.06467">
        <ele>1065</ele>
        <time>2020-09-16T08:44:00Z</time>
      </trkpt>
      <trkpt lat="44.80992" lon="4.06439">
        <ele>1077</ele>
        <time>2020-09-16T08:46:15Z</time>
      </trkpt>
      <trkpt lat="44.8095" lon="4.06413">
        <ele>1078</ele>
        <time>2020-09-16T08:47:16Z</time>
      </trkpt>
      <trkpt lat="44.80925" lon="4.06406">
        <ele>1080</ele>
        <time>2020-09-16T08:47:50Z</time>
      </trkpt>
      <trkpt lat="44.80903" lon="4.06407">
        <ele>1081</ele>
        <time>2020-09-16T08:48:20Z</time>
      </trkpt>
      <trkpt lat="44.8087" lon="4.06416">
        <ele>1082</ele>
        <time>2020-09-16T08:49:04Z</time>
      </trkpt>
      <trkpt lat="44.80832" lon="4.06431">
        <ele>1084</ele>
        <time>2020-09-16T08:49:57Z</time>
      </trkpt>
      <trkpt lat="44.80802" lon="4.0645">
        <ele>1081</ele>
        <time>2020-09-16T08:50:41Z</time>
      </trkpt>
      <trkpt lat="44.80786" lon="4.06477">
        <ele>1082</ele>
        <time>2020-09-16T08:51:14Z</time>
      </trkpt>
      <trkpt lat="44.80779" lon="4.06509">
        <ele>1083</ele>
        <time>2020-09-16T08:51:46Z</time>
      </trkpt>
      <trkpt lat="44.80779" lon="4.06515">
        <ele>1083</ele>
        <time>2020-09-16T08:51:52Z</time>
      </trkpt>
      <trkpt lat="44.80781" lon="4.06516">
        <ele>1083</ele>
        <time>2020-09-16T08:51:55Z</time>
      </trkpt>
      <trkpt lat="44.80779" lon="4.06515">
        <ele>1083</ele>
        <time>2020-09-16T08:51:57Z</time>
      </trkpt>
      <trkpt lat="44.80777" lon="4.06579">
        <ele>1083</ele>
        <time>2020-09-16T08:52:58Z</time>
      </trkpt>
      <trkpt lat="44.80778" lon="4.06624">
        <ele>1085</ele>
        <time>2020-09-16T08:53:41Z</time>
      </trkpt>
      <trkpt lat="44.80776" lon="4.06633">
        <ele>1085</ele>
        <time>2020-09-16T08:53:50Z</time>
      </trkpt>
      <trkpt lat="44.80772" lon="4.06735">
        <ele>1088</ele>
        <time>2020-09-16T08:55:26Z</time>
      </trkpt>
      <trkpt lat="44.8076" lon="4.06801">
        <ele>1085</ele>
        <time>2020-09-16T08:56:31Z</time>
      </trkpt>
      <trkpt lat="44.80758" lon="4.06833">
        <ele>1085</ele>
        <time>2020-09-16T08:57:01Z</time>
      </trkpt>
      <trkpt lat="44.8076" lon="4.06858">
        <ele>1086</ele>
        <time>2020-09-16T08:57:25Z</time>
      </trkpt>
      <trkpt lat="44.80773" lon="4.06914">
        <ele>1090</ele>
        <time>2020-09-16T08:58:21Z</time>
      </trkpt>
      <trkpt lat="44.80781" lon="4.06934">
        <ele>1094</ele>
        <time>2020-09-16T08:58:43Z</time>
      </trkpt>
      <trkpt lat="44.80783" lon="4.06947">
        <ele>1095</ele>
        <time>2020-09-16T08:58:55Z</time>
      </trkpt>
      <trkpt lat="44.80782" lon="4.06973">
        <ele>1095</ele>
        <time>2020-09-16T08:59:20Z</time>
      </trkpt>
      <trkpt lat="44.80765" lon="4.07055">
        <ele>1088</ele>
        <time>2020-09-16T09:00:41Z</time>
      </trkpt>
      <trkpt lat="44.80757" lon="4.07156">
        <ele>1085</ele>
        <time>2020-09-16T09:02:17Z</time>
      </trkpt>
      <trkpt lat="44.8076" lon="4.07171">
        <ele>1085</ele>
        <time>2020-09-16T09:02:32Z</time>
      </trkpt>
      <trkpt lat="44.80769" lon="4.07175">
        <ele>1089</ele>
        <time>2020-09-16T09:02:44Z</time>
      </trkpt>
      <trkpt lat="44.80866" lon="4.07188">
        <ele>1117</ele>
        <time>2020-09-16T09:04:54Z</time>
      </trkpt>
      <trkpt lat="44.80889" lon="4.07194">
        <ele>1121</ele>
        <time>2020-09-16T09:05:26Z</time>
      </trkpt>
      <trkpt lat="44.80904" lon="4.07202">
        <ele>1123</ele>
        <time>2020-09-16T09:05:47Z</time>
      </trkpt>
      <trkpt lat="44.80911" lon="4.07214">
        <ele>1124</ele>
        <time>2020-09-16T09:06:02Z</time>
      </trkpt>
      <trkpt lat="44.80931" lon="4.07305">
        <ele>1113</ele>
        <time>2020-09-16T09:07:32Z</time>
      </trkpt>
      <trkpt lat="44.80934" lon="4.07338">
        <ele>1108</ele>
        <time>2020-09-16T09:08:03Z</time>
      </trkpt>
      <trkpt lat="44.80944" lon="4.074">
        <ele>1096</ele>
        <time>2020-09-16T09:09:04Z</time>
      </trkpt>
      <trkpt lat="44.80945" lon="4.07438">
        <ele>1091</ele>
        <time>2020-09-16T09:09:40Z</time>
      </trkpt>
      <trkpt lat="44.80968" lon="4.07506">
        <ele>1088</ele>
        <time>2020-09-16T09:10:51Z</time>
      </trkpt>
      <trkpt lat="44.80971" lon="4.07557">
        <ele>1087</ele>
        <time>2020-09-16T09:11:39Z</time>
      </trkpt>
      <trkpt lat="44.80979" lon="4.07586">
        <ele>1088</ele>
        <time>2020-09-16T09:12:09Z</time>
      </trkpt>
      <trkpt lat="44.8098" lon="4.07621">
        <ele>1087</ele>
        <time>2020-09-16T09:12:42Z</time>
      </trkpt>
      <trkpt lat="44.80988" lon="4.07661">
        <ele>1088</ele>
        <time>2020-09-16T09:13:21Z</time>
      </trkpt>
      <trkpt lat="44.80994" lon="4.07666">
        <ele>1089</ele>
        <time>2020-09-16T09:13:31Z</time>
      </trkpt>
      <trkpt lat="44.81002" lon="4.07662">
        <ele>1091</ele>
        <time>2020-09-16T09:13:42Z</time>
      </trkpt>
      <trkpt lat="44.8101" lon="4.07651">
        <ele>1090</ele>
        <time>2020-09-16T09:13:57Z</time>
      </trkpt>
      <trkpt lat="44.81017" lon="4.07649">
        <ele>1090</ele>
        <time>2020-09-16T09:14:06Z</time>
      </trkpt>
      <trkpt lat="44.80989" lon="4.07728">
        <ele>1083</ele>
        <time>2020-09-16T09:15:30Z</time>
      </trkpt>
      <trkpt lat="44.80987" lon="4.07825">
        <ele>1075</ele>
        <time>2020-09-16T09:17:02Z</time>
      </trkpt>
      <trkpt lat="44.80994" lon="4.07872">
        <ele>1069</ele>
        <time>2020-09-16T09:17:47Z</time>
      </trkpt>
      <trkpt lat="44.81003" lon="4.0789">
        <ele>1068</ele>
        <time>2020-09-16T09:18:08Z</time>
      </trkpt>
      <trkpt lat="44.81011" lon="4.07898">
        <ele>1068</ele>
        <time>2020-09-16T09:18:21Z</time>
      </trkpt>
      <trkpt lat="44.81026" lon="4.07906">
        <ele>1069</ele>
        <time>2020-09-16T09:18:43Z</time>
      </trkpt>
      <trkpt lat="44.81046" lon="4.07922">
        <ele>1071</ele>
        <time>2020-09-16T09:19:13Z</time>
      </trkpt>
      <trkpt lat="44.81072" lon="4.07955">
        <ele>1072</ele>
        <time>2020-09-16T09:20:00Z</time>
      </trkpt>
      <trkpt lat="44.81078" lon="4.0797">
        <ele>1071</ele>
        <time>2020-09-16T09:20:16Z</time>
      </trkpt>
      <trkpt lat="44.81078" lon="4.08004">
        <ele>1067</ele>
        <time>2020-09-16T09:20:48Z</time>
      </trkpt>
      <trkpt lat="44.81072" lon="4.08039">
        <ele>1067</ele>
        <time>2020-09-16T09:21:23Z</time>
      </trkpt>
      <trkpt lat="44.81052" lon="4.08119">
        <ele>1058</ele>
        <time>2020-09-16T09:22:43Z</time>
      </trkpt>
      <trkpt lat="44.81051" lon="4.08132">
        <ele>1057</ele>
        <time>2020-09-16T09:22:55Z</time>
      </trkpt>
      <trkpt lat="44.81054" lon="4.08153">
        <ele>1057</ele>
        <time>2020-09-16T09:23:16Z</time>
      </trkpt>
      <trkpt lat="44.81077" lon="4.08209">
        <ele>1060</ele>
        <time>2020-09-16T09:24:17Z</time>
      </trkpt>
      <trkpt lat="44.811" lon="4.08255">
        <ele>1064</ele>
        <time>2020-09-16T09:25:10Z</time>
      </trkpt>
      <trkpt lat="44.8111" lon="4.08317">
        <ele>1071</ele>
        <time>2020-09-16T09:26:10Z</time>
      </trkpt>
      <trkpt lat="44.81109" lon="4.08336">
        <ele>1072</ele>
        <time>2020-09-16T09:26:28Z</time>
      </trkpt>
      <trkpt lat="44.811" lon="4.0835">
        <ele>1071</ele>
        <time>2020-09-16T09:26:46Z</time>
      </trkpt>
      <trkpt lat="44.81058" lon="4.08362">
        <ele>1059</ele>
        <time>2020-09-16T09:27:43Z</time>
      </trkpt>
      <trkpt lat="44.81047" lon="4.08371">
        <ele>1058</ele>
        <time>2020-09-16T09:28:00Z</time>
      </trkpt>
      <trkpt lat="44.81029" lon="4.08397">
        <ele>1059</ele>
        <time>2020-09-16T09:28:35Z</time>
      </trkpt>
      <trkpt lat="44.81017" lon="4.08429">
        <ele>1063</ele>
        <time>2020-09-16T09:29:09Z</time>
      </trkpt>
      <trkpt lat="44.81009" lon="4.08442">
        <ele>1065</ele>
        <time>2020-09-16T09:29:25Z</time>
      </trkpt>
      <trkpt lat="44.80996" lon="4.08454">
        <ele>1064</ele>
        <time>2020-09-16T09:29:46Z</time>
      </trkpt>
      <trkpt lat="44.80959" lon="4.08469">
        <ele>1057</ele>
        <time>2020-09-16T09:30:37Z</time>
      </trkpt>
      <trkpt lat="44.80953" lon="4.08475">
        <ele>1057</ele>
        <time>2020-09-16T09:30:47Z</time>
      </trkpt>
      <trkpt lat="44.80941" lon="4.0849">
        <ele>1057</ele>
        <time>2020-09-16T09:31:09Z</time>
      </trkpt>
      <trkpt lat="44.80901" lon="4.08569">
        <ele>1062</ele>
        <time>2020-09-16T09:32:41Z</time>
      </trkpt>
      <trkpt lat="44.80895" lon="4.08577">
        <ele>1062</ele>
        <time>2020-09-16T09:32:52Z</time>
      </trkpt>
      <trkpt lat="44.80882" lon="4.08586">
        <ele>1062</ele>
        <time>2020-09-16T09:33:11Z</time>
      </trkpt>
      <trkpt lat="44.80868" lon="4.08591">
        <ele>1060</ele>
        <time>2020-09-16T09:33:30Z</time>
      </trkpt>
      <trkpt lat="44.8083" lon="4.08587">
        <ele>1053</ele>
        <time>2020-09-16T09:34:21Z</time>
      </trkpt>
      <trkpt lat="44.80791" lon="4.08562">
        <ele>1048</ele>
        <time>2020-09-16T09:35:18Z</time>
      </trkpt>
      <trkpt lat="44.80766" lon="4.08553">
        <ele>1047</ele>
        <time>2020-09-16T09:35:53Z</time>
      </trkpt>
      <trkpt lat="44.80754" lon="4.08551">
        <ele>1047</ele>
        <time>2020-09-16T09:36:09Z</time>
      </trkpt>
      <trkpt lat="44.80706" lon="4.0855">
        <ele>1040</ele>
        <time>2020-09-16T09:37:13Z</time>
      </trkpt>
      <trkpt lat="44.80696" lon="4.08552">
        <ele>1039</ele>
        <time>2020-09-16T09:37:26Z</time>
      </trkpt>
      <trkpt lat="44.80682" lon="4.08558">
        <ele>1038</ele>
        <time>2020-09-16T09:37:46Z</time>
      </trkpt>
      <trkpt lat="44.80673" lon="4.08568">
        <ele>1038</ele>
        <time>2020-09-16T09:38:01Z</time>
      </trkpt>
      <trkpt lat="44.80664" lon="4.08586">
        <ele>1038</ele>
        <time>2020-09-16T09:38:22Z</time>
      </trkpt>
      <trkpt lat="44.80656" lon="4.08612">
        <ele>1036</ele>
        <time>2020-09-16T09:38:49Z</time>
      </trkpt>
      <trkpt lat="44.80629" lon="4.08722">
        <ele>1029</ele>
        <time>2020-09-16T09:40:39Z</time>
      </trkpt>
      <trkpt lat="44.80626" lon="4.08746">
        <ele>1029</ele>
        <time>2020-09-16T09:41:02Z</time>
      </trkpt>
      <trkpt lat="44.80629" lon="4.08801">
        <ele>1029</ele>
        <time>2020-09-16T09:41:54Z</time>
      </trkpt>
      <trkpt lat="44.80624" lon="4.08817">
        <ele>1028</ele>
        <time>2020-09-16T09:42:11Z</time>
      </trkpt>
      <trkpt lat="44.80631" lon="4.08855">
        <ele>1029</ele>
        <time>2020-09-16T09:42:48Z</time>
      </trkpt>
      <trkpt lat="44.8067" lon="4.08951">
        <ele>1039</ele>
        <time>2020-09-16T09:44:33Z</time>
      </trkpt>
      <trkpt lat="44.80671" lon="4.08958">
        <ele>1040</ele>
        <time>2020-09-16T09:44:39Z</time>
      </trkpt>
      <trkpt lat="44.80666" lon="4.08972">
        <ele>1038</ele>
        <time>2020-09-16T09:44:54Z</time>
      </trkpt>
      <trkpt lat="44.80658" lon="4.08979">
        <ele>1037</ele>
        <time>2020-09-16T09:45:07Z</time>
      </trkpt>
      <trkpt lat="44.80634" lon="4.08984">
        <ele>1031</ele>
        <time>2020-09-16T09:45:39Z</time>
      </trkpt>
      <trkpt lat="44.80622" lon="4.08992">
        <ele>1029</ele>
        <time>2020-09-16T09:45:57Z</time>
      </trkpt>
      <trkpt lat="44.80608" lon="4.09006">
        <ele>1027</ele>
        <time>2020-09-16T09:46:20Z</time>
      </trkpt>
      <trkpt lat="44.80607" lon="4.0902">
        <ele>1028</ele>
        <time>2020-09-16T09:46:33Z</time>
      </trkpt>
      <trkpt lat="44.80617" lon="4.09042">
        <ele>1033</ele>
        <time>2020-09-16T09:46:58Z</time>
      </trkpt>
      <trkpt lat="44.80622" lon="4.09061">
        <ele>1036</ele>
        <time>2020-09-16T09:47:17Z</time>
      </trkpt>
      <trkpt lat="44.80622" lon="4.09069">
        <ele>1037</ele>
        <time>2020-09-16T09:47:25Z</time>
      </trkpt>
      <trkpt lat="44.80619" lon="4.09076">
        <ele>1037</ele>
        <time>2020-09-16T09:47:32Z</time>
      </trkpt>
      <trkpt lat="44.80611" lon="4.09085">
        <ele>1036</ele>
        <time>2020-09-16T09:47:46Z</time>
      </trkpt>
      <trkpt lat="44.80604" lon="4.09087">
        <ele>1035</ele>
        <time>2020-09-16T09:47:56Z</time>
      </trkpt>
      <trkpt lat="44.80572" lon="4.09076">
        <ele>1028</ele>
        <time>2020-09-16T09:48:40Z</time>
      </trkpt>
      <trkpt lat="44.80542" lon="4.09087">
        <ele>1030</ele>
        <time>2020-09-16T09:49:21Z</time>
      </trkpt>
      <trkpt lat="44.80532" lon="4.09084">
        <ele>1029</ele>
        <time>2020-09-16T09:49:35Z</time>
      </trkpt>
      <trkpt lat="44.80527" lon="4.0908">
        <ele>1028</ele>
        <time>2020-09-16T09:49:42Z</time>
      </trkpt>
      <trkpt lat="44.80504" lon="4.09049">
        <ele>1023</ele>
        <time>2020-09-16T09:50:25Z</time>
      </trkpt>
      <trkpt lat="44.80493" lon="4.09046">
        <ele>1020</ele>
        <time>2020-09-16T09:50:40Z</time>
      </trkpt>
      <trkpt lat="44.80472" lon="4.09061">
        <ele>1018</ele>
        <time>2020-09-16T09:51:11Z</time>
      </trkpt>
      <trkpt lat="44.8046" lon="4.09074">
        <ele>1018</ele>
        <time>2020-09-16T09:51:31Z</time>
      </trkpt>
      <trkpt lat="44.80455" lon="4.09094">
        <ele>1021</ele>
        <time>2020-09-16T09:51:51Z</time>
      </trkpt>
      <trkpt lat="44.80434" lon="4.09144">
        <ele>1026</ele>
        <time>2020-09-16T09:52:46Z</time>
      </trkpt>
      <trkpt lat="44.80431" lon="4.09176">
        <ele>1033</ele>
        <time>2020-09-16T09:53:17Z</time>
      </trkpt>
      <trkpt lat="44.80436" lon="4.09206">
        <ele>1040</ele>
        <time>2020-09-16T09:53:46Z</time>
      </trkpt>
      <trkpt lat="44.80435" lon="4.0922">
        <ele>1043</ele>
        <time>2020-09-16T09:53:59Z</time>
      </trkpt>
      <trkpt lat="44.80428" lon="4.09226">
        <ele>1043</ele>
        <time>2020-09-16T09:54:10Z</time>
      </trkpt>
      <trkpt lat="44.8042" lon="4.09226">
        <ele>1041</ele>
        <time>2020-09-16T09:54:21Z</time>
      </trkpt>
      <trkpt lat="44.80397" lon="4.09232">
        <ele>1038</ele>
        <time>2020-09-16T09:54:52Z</time>
      </trkpt>
      <trkpt lat="44.80375" lon="4.09251">
        <ele>1037</ele>
        <time>2020-09-16T09:55:27Z</time>
      </trkpt>
      <trkpt lat="44.8034" lon="4.09315">
        <ele>1047</ele>
        <time>2020-09-16T09:56:43Z</time>
      </trkpt>
      <trkpt lat="44.80303" lon="4.0937">
        <ele>1057</ele>
        <time>2020-09-16T09:57:55Z</time>
      </trkpt>
      <trkpt lat="44.80253" lon="4.09396">
        <ele>1058</ele>
        <time>2020-09-16T09:59:06Z</time>
      </trkpt>
      <trkpt lat="44.80234" lon="4.09402">
        <ele>1059</ele>
        <time>2020-09-16T09:59:32Z</time>
      </trkpt>
      <trkpt lat="44.8022" lon="4.09398">
        <ele>1058</ele>
        <time>2020-09-16T09:59:51Z</time>
      </trkpt>
      <trkpt lat="44.80209" lon="4.09391">
        <ele>1056</ele>
        <time>2020-09-16T10:00:07Z</time>
      </trkpt>
      <trkpt lat="44.80193" lon="4.09392">
        <ele>1056</ele>
        <time>2020-09-16T10:00:29Z</time>
      </trkpt>
      <trkpt lat="44.80176" lon="4.09398">
        <ele>1057</ele>
        <time>2020-09-16T10:00:52Z</time>
      </trkpt>
      <trkpt lat="44.80155" lon="4.09417">
        <ele>1059</ele>
        <time>2020-09-16T10:01:25Z</time>
      </trkpt>
      <trkpt lat="44.80141" lon="4.09437">
        <ele>1059</ele>
        <time>2020-09-16T10:01:52Z</time>
      </trkpt>
      <trkpt lat="44.80131" lon="4.09466">
        <ele>1061</ele>
        <time>2020-09-16T10:02:22Z</time>
      </trkpt>
      <trkpt lat="44.80124" lon="4.0952">
        <ele>1065</ele>
        <time>2020-09-16T10:03:14Z</time>
      </trkpt>
      <trkpt lat="44.80126" lon="4.09541">
        <ele>1066</ele>
        <time>2020-09-16T10:03:35Z</time>
      </trkpt>
      <trkpt lat="44.80135" lon="4.09561">
        <ele>1068</ele>
        <time>2020-09-16T10:03:57Z</time>
      </trkpt>
      <trkpt lat="44.80143" lon="4.09567">
        <ele>1070</ele>
        <time>2020-09-16T10:04:09Z</time>
      </trkpt>
      <trkpt lat="44.80159" lon="4.09571">
        <ele>1072</ele>
        <time>2020-09-16T10:04:31Z</time>
      </trkpt>
      <trkpt lat="44.80182" lon="4.09568">
        <ele>1074</ele>
        <time>2020-09-16T10:05:02Z</time>
      </trkpt>
      <trkpt lat="44.80207" lon="4.09558">
        <ele>1077</ele>
        <time>2020-09-16T10:05:36Z</time>
      </trkpt>
      <trkpt lat="44.80237" lon="4.09559">
        <ele>1080</ele>
        <time>2020-09-16T10:06:16Z</time>
      </trkpt>
      <trkpt lat="44.80266" lon="4.09551">
        <ele>1082</ele>
        <time>2020-09-16T10:06:56Z</time>
      </trkpt>
      <trkpt lat="44.80289" lon="4.09556">
        <ele>1083</ele>
        <time>2020-09-16T10:07:27Z</time>
      </trkpt>
      <trkpt lat="44.80307" lon="4.09557">
        <ele>1084</ele>
        <time>2020-09-16T10:07:51Z</time>
      </trkpt>
      <trkpt lat="44.8038" lon="4.09537">
        <ele>1090</ele>
        <time>2020-09-16T10:09:30Z</time>
      </trkpt>
      <trkpt lat="44.80425" lon="4.09506">
        <ele>1098</ele>
        <time>2020-09-16T10:10:37Z</time>
      </trkpt>
      <trkpt lat="44.80444" lon="4.09484">
        <ele>1101</ele>
        <time>2020-09-16T10:11:10Z</time>
      </trkpt>
      <trkpt lat="44.80444" lon="4.0949">
        <ele>1101</ele>
        <time>2020-09-16T10:11:15Z</time>
      </trkpt>
      <trkpt lat="44.80437" lon="4.095">
        <ele>1100</ele>
        <time>2020-09-16T10:11:29Z</time>
      </trkpt>
      <trkpt lat="44.80438" lon="4.0951">
        <ele>1099</ele>
        <time>2020-09-16T10:11:38Z</time>
      </trkpt>
      <trkpt lat="44.80452" lon="4.09546">
        <ele>1098</ele>
        <time>2020-09-16T10:12:17Z</time>
      </trkpt>
      <trkpt lat="44.80455" lon="4.09563">
        <ele>1097</ele>
        <time>2020-09-16T10:12:34Z</time>
      </trkpt>
      <trkpt lat="44.80472" lon="4.09605">
        <ele>1099</ele>
        <time>2020-09-16T10:13:19Z</time>
      </trkpt>
      <trkpt lat="44.80473" lon="4.09618">
        <ele>1098</ele>
        <time>2020-09-16T10:13:32Z</time>
      </trkpt>
      <trkpt lat="44.80471" lon="4.0972">
        <ele>1093</ele>
        <time>2020-09-16T10:15:08Z</time>
      </trkpt>
      <trkpt lat="44.80454" lon="4.09846">
        <ele>1084</ele>
        <time>2020-09-16T10:17:10Z</time>
      </trkpt>
      <trkpt lat="44.80459" lon="4.09885">
        <ele>1081</ele>
        <time>2020-09-16T10:17:47Z</time>
      </trkpt>
      <trkpt lat="44.80467" lon="4.09907">
        <ele>1082</ele>
        <time>2020-09-16T10:18:11Z</time>
      </trkpt>
      <trkpt lat="44.80472" lon="4.0993">
        <ele>1082</ele>
        <time>2020-09-16T10:18:34Z</time>
      </trkpt>
      <trkpt lat="44.80475" lon="4.09972">
        <ele>1080</ele>
        <time>2020-09-16T10:19:14Z</time>
      </trkpt>
      <trkpt lat="44.80481" lon="4.09999">
        <ele>1081</ele>
        <time>2020-09-16T10:19:40Z</time>
      </trkpt>
      <trkpt lat="44.80485" lon="4.10044">
        <ele>1076</ele>
        <time>2020-09-16T10:20:23Z</time>
      </trkpt>
      <trkpt lat="44.80511" lon="4.10158">
        <ele>1073</ele>
        <time>2020-09-16T10:22:17Z</time>
      </trkpt>
      <trkpt lat="44.80515" lon="4.10216">
        <ele>1067</ele>
        <time>2020-09-16T10:23:12Z</time>
      </trkpt>
      <trkpt lat="44.80509" lon="4.10311">
        <ele>1054</ele>
        <time>2020-09-16T10:24:42Z</time>
      </trkpt>
      <trkpt lat="44.80511" lon="4.10358">
        <ele>1047</ele>
        <time>2020-09-16T10:25:27Z</time>
      </trkpt>
      <trkpt lat="44.80528" lon="4.10377">
        <ele>1045</ele>
        <time>2020-09-16T10:25:56Z</time>
      </trkpt>
      <trkpt lat="44.80566" lon="4.10377">
        <ele>1050</ele>
        <time>2020-09-16T10:26:46Z</time>
      </trkpt>
      <trkpt lat="44.80631" lon="4.10365">
        <ele>1053</ele>
        <time>2020-09-16T10:28:14Z</time>
      </trkpt>
      <trkpt lat="44.80696" lon="4.10367">
        <ele>1048</ele>
        <time>2020-09-16T10:29:41Z</time>
      </trkpt>
      <trkpt lat="44.80705" lon="4.10361">
        <ele>1048</ele>
        <time>2020-09-16T10:29:54Z</time>
      </trkpt>
      <trkpt lat="44.80734" lon="4.10329">
        <ele>1051</ele>
        <time>2020-09-16T10:30:43Z</time>
      </trkpt>
      <trkpt lat="44.80749" lon="4.10308">
        <ele>1053</ele>
        <time>2020-09-16T10:31:11Z</time>
      </trkpt>
      <trkpt lat="44.80774" lon="4.10283">
        <ele>1058</ele>
        <time>2020-09-16T10:31:52Z</time>
      </trkpt>
      <trkpt lat="44.80794" lon="4.10267">
        <ele>1060</ele>
        <time>2020-09-16T10:32:23Z</time>
      </trkpt>
      <trkpt lat="44.8081" lon="4.10258">
        <ele>1060</ele>
        <time>2020-09-16T10:32:46Z</time>
      </trkpt>
      <trkpt lat="44.80886" lon="4.10236">
        <ele>1070</ele>
        <time>2020-09-16T10:34:29Z</time>
      </trkpt>
      <trkpt lat="44.80896" lon="4.10238">
        <ele>1071</ele>
        <time>2020-09-16T10:34:43Z</time>
      </trkpt>
      <trkpt lat="44.80932" lon="4.10266">
        <ele>1070</ele>
        <time>2020-09-16T10:35:38Z</time>
      </trkpt>
      <trkpt lat="44.81017" lon="4.10314">
        <ele>1073</ele>
        <time>2020-09-16T10:37:40Z</time>
      </trkpt>
      <trkpt lat="44.81041" lon="4.10334">
        <ele>1071</ele>
        <time>2020-09-16T10:38:17Z</time>
      </trkpt>
      <trkpt lat="44.8107" lon="4.10372">
        <ele>1067</ele>
        <time>2020-09-16T10:39:10Z</time>
      </trkpt>
      <trkpt lat="44.81085" lon="4.10387">
        <ele>1066</ele>
        <time>2020-09-16T10:39:35Z</time>
      </trkpt>
      <trkpt lat="44.81113" lon="4.1039">
        <ele>1067</ele>
        <time>2020-09-16T10:40:12Z</time>
      </trkpt>
      <trkpt lat="44.81133" lon="4.1038">
        <ele>1069</ele>
        <time>2020-09-16T10:40:40Z</time>
      </trkpt>
      <trkpt lat="44.8118" lon="4.10288">
        <ele>1079</ele>
        <time>2020-09-16T10:42:28Z</time>
      </trkpt>
      <trkpt lat="44.81206" lon="4.10248">
        <ele>1085</ele>
        <time>2020-09-16T10:43:19Z</time>
      </trkpt>
      <trkpt lat="44.81234" lon="4.10215">
        <ele>1089</ele>
        <time>2020-09-16T10:44:08Z</time>
      </trkpt>
      <trkpt lat="44.81255" lon="4.10197">
        <ele>1090</ele>
        <time>2020-09-16T10:44:41Z</time>
      </trkpt>
      <trkpt lat="44.81266" lon="4.10212">
        <ele>1089</ele>
        <time>2020-09-16T10:45:01Z</time>
      </trkpt>
      <trkpt lat="44.81279" lon="4.10222">
        <ele>1088</ele>
        <time>2020-09-16T10:45:21Z</time>
      </trkpt>
      <trkpt lat="44.81295" lon="4.10224">
        <ele>1088</ele>
        <time>2020-09-16T10:45:42Z</time>
      </trkpt>
      <trkpt lat="44.81346" lon="4.10206">
        <ele>1092</ele>
        <time>2020-09-16T10:46:52Z</time>
      </trkpt>
      <trkpt lat="44.81414" lon="4.10203">
        <ele>1095</ele>
        <time>2020-09-16T10:48:23Z</time>
      </trkpt>
      <trkpt lat="44.81427" lon="4.10206">
        <ele>1095</ele>
        <time>2020-09-16T10:48:41Z</time>
      </trkpt>
      <trkpt lat="44.81439" lon="4.10212">
        <ele>1096</ele>
        <time>2020-09-16T10:48:58Z</time>
      </trkpt>
      <trkpt lat="44.81462" lon="4.10227">
        <ele>1096</ele>
        <time>2020-09-16T10:49:31Z</time>
      </trkpt>
      <trkpt lat="44.81495" lon="4.10238">
        <ele>1098</ele>
        <time>2020-09-16T10:50:17Z</time>
      </trkpt>
      <trkpt lat="44.8156" lon="4.10254">
        <ele>1102</ele>
        <time>2020-09-16T10:51:45Z</time>
      </trkpt>
      <trkpt lat="44.81572" lon="4.10259">
        <ele>1103</ele>
        <time>2020-09-16T10:52:01Z</time>
      </trkpt>
      <trkpt lat="44.81598" lon="4.10262">
        <ele>1105</ele>
        <time>2020-09-16T10:52:36Z</time>
      </trkpt>
      <trkpt lat="44.81628" lon="4.10287">
        <ele>1105</ele>
        <time>2020-09-16T10:53:23Z</time>
      </trkpt>
      <trkpt lat="44.81648" lon="4.10297">
        <ele>1106</ele>
        <time>2020-09-16T10:53:51Z</time>
      </trkpt>
      <trkpt lat="44.81701" lon="4.10299">
        <ele>1114</ele>
        <time>2020-09-16T10:55:02Z</time>
      </trkpt>
      <trkpt lat="44.81756" lon="4.10298">
        <ele>1124</ele>
        <time>2020-09-16T10:56:15Z</time>
      </trkpt>
      <trkpt lat="44.81809" lon="4.10315">
        <ele>1132</ele>
        <time>2020-09-16T10:57:28Z</time>
      </trkpt>
      <trkpt lat="44.81886" lon="4.1041">
        <ele>1130</ele>
        <time>2020-09-16T10:59:44Z</time>
      </trkpt>
      <trkpt lat="44.81905" lon="4.10466">
        <ele>1129</ele>
        <time>2020-09-16T11:00:43Z</time>
      </trkpt>
      <trkpt lat="44.8192" lon="4.10491">
        <ele>1130</ele>
        <time>2020-09-16T11:01:14Z</time>
      </trkpt>
      <trkpt lat="44.8197" lon="4.1056">
        <ele>1139</ele>
        <time>2020-09-16T11:02:47Z</time>
      </trkpt>
      <trkpt lat="44.8198" lon="4.10583">
        <ele>1142</ele>
        <time>2020-09-16T11:03:13Z</time>
      </trkpt>
      <trkpt lat="44.81988" lon="4.10589">
        <ele>1143</ele>
        <time>2020-09-16T11:03:25Z</time>
      </trkpt>
      <trkpt lat="44.82003" lon="4.10593">
        <ele>1146</ele>
        <time>2020-09-16T11:03:45Z</time>
      </trkpt>
      <trkpt lat="44.82024" lon="4.10604">
        <ele>1147</ele>
        <time>2020-09-16T11:04:15Z</time>
      </trkpt>
      <trkpt lat="44.82064" lon="4.10633">
        <ele>1150</ele>
        <time>2020-09-16T11:05:15Z</time>
      </trkpt>
      <trkpt lat="44.82076" lon="4.10637">
        <ele>1152</ele>
        <time>2020-09-16T11:05:32Z</time>
      </trkpt>
      <trkpt lat="44.82115" lon="4.1064">
        <ele>1156</ele>
        <time>2020-09-16T11:06:24Z</time>
      </trkpt>
      <trkpt lat="44.82146" lon="4.10666">
        <ele>1159</ele>
        <time>2020-09-16T11:07:12Z</time>
      </trkpt>
      <trkpt lat="44.82165" lon="4.10689">
        <ele>1160</ele>
        <time>2020-09-16T11:07:46Z</time>
      </trkpt>
      <trkpt lat="44.82163" lon="4.1068">
        <ele>1160</ele>
        <time>2020-09-16T11:07:54Z</time>
      </trkpt>
      <trkpt lat="44.82165" lon="4.10657">
        <ele>1161</ele>
        <time>2020-09-16T11:08:16Z</time>
      </trkpt>
      <trkpt lat="44.8217" lon="4.10646">
        <ele>1161</ele>
        <time>2020-09-16T11:08:29Z</time>
      </trkpt>
      <trkpt lat="44.82185" lon="4.10592">
        <ele>1161</ele>
        <time>2020-09-16T11:09:24Z</time>
      </trkpt>
      <trkpt lat="44.82198" lon="4.10554">
        <ele>1161</ele>
        <time>2020-09-16T11:10:04Z</time>
      </trkpt>
      <trkpt lat="44.8224" lon="4.1046">
        <ele>1166</ele>
        <time>2020-09-16T11:11:49Z</time>
      </trkpt>
      <trkpt lat="44.8224" lon="4.10427">
        <ele>1168</ele>
        <time>2020-09-16T11:12:20Z</time>
      </trkpt>
      <trkpt lat="44.82233" lon="4.10397">
        <ele>1170</ele>
        <time>2020-09-16T11:12:50Z</time>
      </trkpt>
      <trkpt lat="44.82198" lon="4.10328">
        <ele>1175</ele>
        <time>2020-09-16T11:14:10Z</time>
      </trkpt>
      <trkpt lat="44.82179" lon="4.10301">
        <ele>1179</ele>
        <time>2020-09-16T11:14:46Z</time>
      </trkpt>
      <trkpt lat="44.82165" lon="4.1029">
        <ele>1179</ele>
        <time>2020-09-16T11:15:08Z</time>
      </trkpt>
      <trkpt lat="44.82141" lon="4.10278">
        <ele>1179</ele>
        <time>2020-09-16T11:15:42Z</time>
      </trkpt>
      <trkpt lat="44.82106" lon="4.10255">
        <ele>1179</ele>
        <time>2020-09-16T11:16:33Z</time>
      </trkpt>
      <trkpt lat="44.82084" lon="4.10234">
        <ele>1180</ele>
        <time>2020-09-16T11:17:09Z</time>
      </trkpt>
      <trkpt lat="44.8207" lon="4.10216">
        <ele>1181</ele>
        <time>2020-09-16T11:17:34Z</time>
      </trkpt>
      <trkpt lat="44.82055" lon="4.10172">
        <ele>1186</ele>
        <time>2020-09-16T11:18:20Z</time>
      </trkpt>
      <trkpt lat="44.82054" lon="4.10147">
        <ele>1189</ele>
        <time>2020-09-16T11:18:44Z</time>
      </trkpt>
      <trkpt lat="44.82048" lon="4.10125">
        <ele>1191</ele>
        <time>2020-09-16T11:19:06Z</time>
      </trkpt>
      <trkpt lat="44.82022" lon="4.10077">
        <ele>1194</ele>
        <time>2020-09-16T11:20:03Z</time>
      </trkpt>
      <trkpt lat="44.82009" lon="4.10046">
        <ele>1200</ele>
        <time>2020-09-16T11:20:37Z</time>
      </trkpt>
      <trkpt lat="44.81995" lon="4.10027">
        <ele>1202</ele>
        <time>2020-09-16T11:21:03Z</time>
      </trkpt>
      <trkpt lat="44.81957" lon="4.09991">
        <ele>1205</ele>
        <time>2020-09-16T11:22:04Z</time>
      </trkpt>
      <trkpt lat="44.81936" lon="4.09963">
        <ele>1206</ele>
        <time>2020-09-16T11:22:43Z</time>
      </trkpt>
      <trkpt lat="44.8193" lon="4.0995">
        <ele>1207</ele>
        <time>2020-09-16T11:22:58Z</time>
      </trkpt>
      <trkpt lat="44.81929" lon="4.09916">
        <ele>1212</ele>
        <time>2020-09-16T11:23:30Z</time>
      </trkpt>
      <trkpt lat="44.81938" lon="4.09871">
        <ele>1219</ele>
        <time>2020-09-16T11:24:14Z</time>
      </trkpt>
      <trkpt lat="44.81939" lon="4.0982">
        <ele>1225</ele>
        <time>2020-09-16T11:25:02Z</time>
      </trkpt>
      <trkpt lat="44.81937" lon="4.09805">
        <ele>1226</ele>
        <time>2020-09-16T11:25:17Z</time>
      </trkpt>
      <trkpt lat="44.8193" lon="4.09786">
        <ele>1226</ele>
        <time>2020-09-16T11:25:37Z</time>
      </trkpt>
      <trkpt lat="44.81894" lon="4.09743">
        <ele>1225</ele>
        <time>2020-09-16T11:26:40Z</time>
      </trkpt>
      <trkpt lat="44.81836" lon="4.09644">
        <ele>1233</ele>
        <time>2020-09-16T11:28:42Z</time>
      </trkpt>
      <trkpt lat="44.8178" lon="4.0962">
        <ele>1237</ele>
        <time>2020-09-16T11:30:00Z</time>
      </trkpt>
      <trkpt lat="44.81718" lon="4.09598">
        <ele>1239</ele>
        <time>2020-09-16T11:31:25Z</time>
      </trkpt>
      <trkpt lat="44.81708" lon="4.0959">
        <ele>1241</ele>
        <time>2020-09-16T11:31:40Z</time>
      </trkpt>
      <trkpt lat="44.81701" lon="4.09579">
        <ele>1243</ele>
        <time>2020-09-16T11:31:54Z</time>
      </trkpt>
      <trkpt lat="44.81693" lon="4.09556">
        <ele>1247</ele>
        <time>2020-09-16T11:32:19Z</time>
      </trkpt>
      <trkpt lat="44.81696" lon="4.09543">
        <ele>1250</ele>
        <time>2020-09-16T11:32:31Z</time>
      </trkpt>
      <trkpt lat="44.81704" lon="4.09531">
        <ele>1252</ele>
        <time>2020-09-16T11:32:47Z</time>
      </trkpt>
      <trkpt lat="44.81716" lon="4.09524">
        <ele>1253</ele>
        <time>2020-09-16T11:33:04Z</time>
      </trkpt>
      <trkpt lat="44.81733" lon="4.09523">
        <ele>1253</ele>
        <time>2020-09-16T11:33:27Z</time>
      </trkpt>
      <trkpt lat="44.81754" lon="4.09526">
        <ele>1253</ele>
        <time>2020-09-16T11:33:55Z</time>
      </trkpt>
      <trkpt lat="44.81858" lon="4.09561">
        <ele>1252</ele>
        <time>2020-09-16T11:36:18Z</time>
      </trkpt>
      <trkpt lat="44.81892" lon="4.09563">
        <ele>1253</ele>
        <time>2020-09-16T11:37:03Z</time>
      </trkpt>
      <trkpt lat="44.81914" lon="4.09557">
        <ele>1255</ele>
        <time>2020-09-16T11:37:33Z</time>
      </trkpt>
      <trkpt lat="44.81931" lon="4.09549">
        <ele>1257</ele>
        <time>2020-09-16T11:37:57Z</time>
      </trkpt>
      <trkpt lat="44.81994" lon="4.09512">
        <ele>1263</ele>
        <time>2020-09-16T11:39:28Z</time>
      </trkpt>
      <trkpt lat="44.82008" lon="4.09494">
        <ele>1264</ele>
        <time>2020-09-16T11:39:54Z</time>
      </trkpt>
      <trkpt lat="44.82024" lon="4.09457">
        <ele>1265</ele>
        <time>2020-09-16T11:40:35Z</time>
      </trkpt>
      <trkpt lat="44.82035" lon="4.0942">
        <ele>1266</ele>
        <time>2020-09-16T11:41:13Z</time>
      </trkpt>
      <trkpt lat="44.82036" lon="4.09408">
        <ele>1265</ele>
        <time>2020-09-16T11:41:24Z</time>
      </trkpt>
      <trkpt lat="44.82031" lon="4.09297">
        <ele>1259</ele>
        <time>2020-09-16T11:43:09Z</time>
      </trkpt>
      <trkpt lat="44.82008" lon="4.09301">
        <ele>1262</ele>
        <time>2020-09-16T11:43:40Z</time>
      </trkpt>
      <trkpt lat="44.82031" lon="4.09297">
        <ele>1259</ele>
        <time>2020-09-16T11:44:11Z</time>
      </trkpt>
      <trkpt lat="44.82023" lon="4.0922">
        <ele>1254</ele>
        <time>2020-09-16T11:45:25Z</time>
      </trkpt>
      <trkpt lat="44.82032" lon="4.09174">
        <ele>1249</ele>
        <time>2020-09-16T11:46:10Z</time>
      </trkpt>
      <trkpt lat="44.82035" lon="4.0914">
        <ele>1245</ele>
        <time>2020-09-16T11:46:42Z</time>
      </trkpt>
      <trkpt lat="44.82024" lon="4.09093">
        <ele>1242</ele>
        <time>2020-09-16T11:47:29Z</time>
      </trkpt>
      <trkpt lat="44.82023" lon="4.09076">
        <ele>1240</ele>
        <time>2020-09-16T11:47:45Z</time>
      </trkpt>
      <trkpt lat="44.8203" lon="4.09068">
        <ele>1238</ele>
        <time>2020-09-16T11:47:57Z</time>
      </trkpt>
      <trkpt lat="44.82037" lon="4.09068">
        <ele>1237</ele>
        <time>2020-09-16T11:48:07Z</time>
      </trkpt>
      <trkpt lat="44.82078" lon="4.09094">
        <ele>1233</ele>
        <time>2020-09-16T11:49:07Z</time>
      </trkpt>
      <trkpt lat="44.82093" lon="4.09102">
        <ele>1232</ele>
        <time>2020-09-16T11:49:28Z</time>
      </trkpt>
      <trkpt lat="44.8211" lon="4.09107">
        <ele>1230</ele>
        <time>2020-09-16T11:49:51Z</time>
      </trkpt>
      <trkpt lat="44.82141" lon="4.09108">
        <ele>1227</ele>
        <time>2020-09-16T11:50:33Z</time>
      </trkpt>
      <trkpt lat="44.82152" lon="4.09106">
        <ele>1225</ele>
        <time>2020-09-16T11:50:47Z</time>
      </trkpt>
      <trkpt lat="44.82158" lon="4.09101">
        <ele>1224</ele>
        <time>2020-09-16T11:50:57Z</time>
      </trkpt>
      <trkpt lat="44.82158" lon="4.09085">
        <ele>1223</ele>
        <time>2020-09-16T11:51:12Z</time>
      </trkpt>
      <trkpt lat="44.82143" lon="4.09062">
        <ele>1222</ele>
        <time>2020-09-16T11:51:41Z</time>
      </trkpt>
      <trkpt lat="44.8212" lon="4.09016">
        <ele>1218</ele>
        <time>2020-09-16T11:52:35Z</time>
      </trkpt>
      <trkpt lat="44.8211" lon="4.08952">
        <ele>1212</ele>
        <time>2020-09-16T11:53:37Z</time>
      </trkpt>
      <trkpt lat="44.82099" lon="4.08908">
        <ele>1210</ele>
        <time>2020-09-16T11:54:21Z</time>
      </trkpt>
      <trkpt lat="44.82098" lon="4.08896">
        <ele>1208</ele>
        <time>2020-09-16T11:54:32Z</time>
      </trkpt>
      <trkpt lat="44.82106" lon="4.08824">
        <ele>1197</ele>
        <time>2020-09-16T11:55:41Z</time>
      </trkpt>
      <trkpt lat="44.82098" lon="4.08742">
        <ele>1188</ele>
        <time>2020-09-16T11:57:00Z</time>
      </trkpt>
      <trkpt lat="44.82099" lon="4.08719">
        <ele>1186</ele>
        <time>2020-09-16T11:57:22Z</time>
      </trkpt>
      <trkpt lat="44.82104" lon="4.08686">
        <ele>1182</ele>
        <time>2020-09-16T11:57:53Z</time>
      </trkpt>
      <trkpt lat="44.82112" lon="4.08654">
        <ele>1179</ele>
        <time>2020-09-16T11:58:26Z</time>
      </trkpt>
      <trkpt lat="44.82132" lon="4.08612">
        <ele>1174</ele>
        <time>2020-09-16T11:59:13Z</time>
      </trkpt>
      <trkpt lat="44.82134" lon="4.08602">
        <ele>1173</ele>
        <time>2020-09-16T11:59:23Z</time>
      </trkpt>
      <trkpt lat="44.82134" lon="4.08586">
        <ele>1173</ele>
        <time>2020-09-16T11:59:38Z</time>
      </trkpt>
      <trkpt lat="44.82129" lon="4.08563">
        <ele>1173</ele>
        <time>2020-09-16T12:00:01Z</time>
      </trkpt>
      <trkpt lat="44.82136" lon="4.08533">
        <ele>1172</ele>
        <time>2020-09-16T12:00:31Z</time>
      </trkpt>
      <trkpt lat="44.82137" lon="4.08493">
        <ele>1171</ele>
        <time>2020-09-16T12:01:09Z</time>
      </trkpt>
      <trkpt lat="44.82141" lon="4.08454">
        <ele>1169</ele>
        <time>2020-09-16T12:01:46Z</time>
      </trkpt>
      <trkpt lat="44.82158" lon="4.08402">
        <ele>1165</ele>
        <time>2020-09-16T12:02:41Z</time>
      </trkpt>
      <trkpt lat="44.82159" lon="4.08389">
        <ele>1163</ele>
        <time>2020-09-16T12:02:53Z</time>
      </trkpt>
      <trkpt lat="44.82159" lon="4.08375">
        <ele>1162</ele>
        <time>2020-09-16T12:03:06Z</time>
      </trkpt>
      <trkpt lat="44.82155" lon="4.08358">
        <ele>1159</ele>
        <time>2020-09-16T12:03:23Z</time>
      </trkpt>
      <trkpt lat="44.82139" lon="4.08305">
        <ele>1151</ele>
        <time>2020-09-16T12:04:18Z</time>
      </trkpt>
      <trkpt lat="44.82137" lon="4.08282">
        <ele>1147</ele>
        <time>2020-09-16T12:04:40Z</time>
      </trkpt>
      <trkpt lat="44.82138" lon="4.08232">
        <ele>1139</ele>
        <time>2020-09-16T12:05:27Z</time>
      </trkpt>
      <trkpt lat="44.82141" lon="4.08205">
        <ele>1135</ele>
        <time>2020-09-16T12:05:53Z</time>
      </trkpt>
      <trkpt lat="44.82156" lon="4.08105">
        <ele>1123</ele>
        <time>2020-09-16T12:07:30Z</time>
      </trkpt>
      <trkpt lat="44.82171" lon="4.08028">
        <ele>1111</ele>
        <time>2020-09-16T12:08:45Z</time>
      </trkpt>
      <trkpt lat="44.82175" lon="4.08015">
        <ele>1108</ele>
        <time>2020-09-16T12:08:58Z</time>
      </trkpt>
      <trkpt lat="44.82186" lon="4.08005">
        <ele>1104</ele>
        <time>2020-09-16T12:09:16Z</time>
      </trkpt>
      <trkpt lat="44.82198" lon="4.0801">
        <ele>1100</ele>
        <time>2020-09-16T12:09:33Z</time>
      </trkpt>
      <trkpt lat="44.82204" lon="4.08017">
        <ele>1099</ele>
        <time>2020-09-16T12:09:43Z</time>
      </trkpt>
      <trkpt lat="44.82212" lon="4.0797">
        <ele>1091</ele>
        <time>2020-09-16T12:10:29Z</time>
      </trkpt>
      <trkpt lat="44.82211" lon="4.07958">
        <ele>1090</ele>
        <time>2020-09-16T12:10:40Z</time>
      </trkpt>
      <trkpt lat="44.82204" lon="4.07935">
        <ele>1089</ele>
        <time>2020-09-16T12:11:04Z</time>
      </trkpt>
      <trkpt lat="44.82207" lon="4.07902">
        <ele>1084</ele>
        <time>2020-09-16T12:11:35Z</time>
      </trkpt>
      <trkpt lat="44.82203" lon="4.07902">
        <ele>1084</ele>
        <time>2020-09-16T12:11:41Z</time>
      </trkpt>
      <trkpt lat="44.82207" lon="4.07902">
        <ele>1084</ele>
        <time>2020-09-16T12:11:46Z</time>
      </trkpt>
      <trkpt lat="44.82208" lon="4.07881">
        <ele>1080</ele>
        <time>2020-09-16T12:12:06Z</time>
      </trkpt>
      <trkpt lat="44.82203" lon="4.07863">
        <ele>1077</ele>
        <time>2020-09-16T12:12:24Z</time>
      </trkpt>
      <trkpt lat="44.82203" lon="4.07846">
        <ele>1074</ele>
        <time>2020-09-16T12:12:40Z</time>
      </trkpt>
      <trkpt lat="44.82197" lon="4.078">
        <ele>1064</ele>
        <time>2020-09-16T12:13:25Z</time>
      </trkpt>
      <trkpt lat="44.82199" lon="4.07781">
        <ele>1059</ele>
        <time>2020-09-16T12:13:43Z</time>
      </trkpt>
      <trkpt lat="44.82213" lon="4.07752">
        <ele>1053</ele>
        <time>2020-09-16T12:14:16Z</time>
      </trkpt>
      <trkpt lat="44.82232" lon="4.07722">
        <ele>1050</ele>
        <time>2020-09-16T12:14:54Z</time>
      </trkpt>
      <trkpt lat="44.82242" lon="4.07699">
        <ele>1048</ele>
        <time>2020-09-16T12:15:20Z</time>
      </trkpt>
      <trkpt lat="44.82247" lon="4.07679">
        <ele>1046</ele>
        <time>2020-09-16T12:15:40Z</time>
      </trkpt>
      <trkpt lat="44.82283" lon="4.07581">
        <ele>1034</ele>
        <time>2020-09-16T12:17:24Z</time>
      </trkpt>
      <trkpt lat="44.8232" lon="4.07501">
        <ele>1028</ele>
        <time>2020-09-16T12:18:55Z</time>
      </trkpt>
      <trkpt lat="44.82343" lon="4.07459">
        <ele>1025</ele>
        <time>2020-09-16T12:19:45Z</time>
      </trkpt>
      <trkpt lat="44.82357" lon="4.07425">
        <ele>1022</ele>
        <time>2020-09-16T12:20:22Z</time>
      </trkpt>
      <trkpt lat="44.82372" lon="4.07375">
        <ele>1018</ele>
        <time>2020-09-16T12:21:13Z</time>
      </trkpt>
      <trkpt lat="44.82378" lon="4.07326">
        <ele>1015</ele>
        <time>2020-09-16T12:22:00Z</time>
      </trkpt>
      <trkpt lat="44.82379" lon="4.07286">
        <ele>1013</ele>
        <time>2020-09-16T12:22:38Z</time>
      </trkpt>
      <trkpt lat="44.82392" lon="4.07203">
        <ele>1011</ele>
        <time>2020-09-16T12:23:59Z</time>
      </trkpt>
      <trkpt lat="44.82391" lon="4.07087">
        <ele>1008</ele>
        <time>2020-09-16T12:25:49Z</time>
      </trkpt>
      <trkpt lat="44.8239" lon="4.07083">
        <ele>1008</ele>
        <time>2020-09-16T12:25:53Z</time>
      </trkpt>
      <trkpt lat="44.82378" lon="4.0709">
        <ele>1007</ele>
        <time>2020-09-16T12:26:10Z</time>
      </trkpt>
      <trkpt lat="44.82372" lon="4.07075">
        <ele>1006</ele>
        <time>2020-09-16T12:26:26Z</time>
      </trkpt>
      <trkpt lat="44.82368" lon="4.07028">
        <ele>1007</ele>
        <time>2020-09-16T12:27:11Z</time>
      </trkpt>
      <trkpt lat="44.82372" lon="4.06979">
        <ele>1008</ele>
        <time>2020-09-16T12:27:58Z</time>
      </trkpt>
      <trkpt lat="44.8237" lon="4.06953">
        <ele>1008</ele>
        <time>2020-09-16T12:28:23Z</time>
      </trkpt>
      <trkpt lat="44.82358" lon="4.06911">
        <ele>1010</ele>
        <time>2020-09-16T12:29:05Z</time>
      </trkpt>
      <trkpt lat="44.82361" lon="4.06889">
        <ele>1010</ele>
        <time>2020-09-16T12:29:27Z</time>
      </trkpt>
      <trkpt lat="44.82358" lon="4.06875">
        <ele>1011</ele>
        <time>2020-09-16T12:29:40Z</time>
      </trkpt>
      <trkpt lat="44.82337" lon="4.0684">
        <ele>1014</ele>
        <time>2020-09-16T12:30:24Z</time>
      </trkpt>
      <trkpt lat="44.82309" lon="4.06802">
        <ele>1013</ele>
        <time>2020-09-16T12:31:16Z</time>
      </trkpt>
      <trkpt lat="44.82247" lon="4.06726">
        <ele>1015</ele>
        <time>2020-09-16T12:33:05Z</time>
      </trkpt>
      <trkpt lat="44.82209" lon="4.06688">
        <ele>1014</ele>
        <time>2020-09-16T12:34:07Z</time>
      </trkpt>
      <trkpt lat="44.82173" lon="4.06662">
        <ele>1017</ele>
        <time>2020-09-16T12:35:01Z</time>
      </trkpt>
      <trkpt lat="44.82152" lon="4.06628">
        <ele>1018</ele>
        <time>2020-09-16T12:35:44Z</time>
      </trkpt>
      <trkpt lat="44.82102" lon="4.06575">
        <ele>1028</ele>
        <time>2020-09-16T12:37:08Z</time>
      </trkpt>
      <trkpt lat="44.82047" lon="4.06535">
        <ele>1029</ele>
        <time>2020-09-16T12:38:30Z</time>
      </trkpt>
      <trkpt lat="44.82011" lon="4.06514">
        <ele>1030</ele>
        <time>2020-09-16T12:39:22Z</time>
      </trkpt>
      <trkpt lat="44.81956" lon="4.06457">
        <ele>1023</ele>
        <time>2020-09-16T12:40:53Z</time>
      </trkpt>
      <trkpt lat="44.8193" lon="4.06436">
        <ele>1020</ele>
        <time>2020-09-16T12:41:33Z</time>
      </trkpt>
      <trkpt lat="44.81901" lon="4.06419">
        <ele>1018</ele>
        <time>2020-09-16T12:42:15Z</time>
      </trkpt>
      <trkpt lat="44.81889" lon="4.06417">
        <ele>1016</ele>
        <time>2020-09-16T12:42:31Z</time>
      </trkpt>
      <trkpt lat="44.81874" lon="4.06422">
        <ele>1014</ele>
        <time>2020-09-16T12:42:52Z</time>
      </trkpt>
      <trkpt lat="44.81843" lon="4.06397">
        <ele>1009</ele>
        <time>2020-09-16T12:43:40Z</time>
      </trkpt>
      <trkpt lat="44.81792" lon="4.06369">
        <ele>1004</ele>
        <time>2020-09-16T12:44:53Z</time>
      </trkpt>
      <trkpt lat="44.81738" lon="4.06349">
        <ele>1001</ele>
        <time>2020-09-16T12:46:07Z</time>
      </trkpt>
      <trkpt lat="44.81737" lon="4.06338">
        <ele>1002</ele>
        <time>2020-09-16T12:46:18Z</time>
      </trkpt>
      <trkpt lat="44.81716" lon="4.06341">
        <ele>1001</ele>
        <time>2020-09-16T12:46:46Z</time>
      </trkpt>
      <trkpt lat="44.81691" lon="4.06337">
        <ele>1002</ele>
        <time>2020-09-16T12:47:19Z</time>
      </trkpt>
    </trkseg>
  </trk>
</gpx>